Aviation Digital Data Service (ADDS)

Output produced by METARs form (0753 UTC 17 October 2017)
found at http://www.aviationweather.gov/adds/metars/
 
KFKL 170656Z AUTO 22005KT 10SM CLR 00/M01 A3029 RMK AO2 SLP269 T00001006 FZRANO
KFKL 170556Z AUTO 24003KT 10SM CLR 02/01 A3029 RMK AO2 SLP268 T00170006 10061 20017 55000 FZRANO
KFKL 170456Z AUTO 22004KT 10SM CLR 02/01 A3028 RMK AO2 SLP262 T00220011 401110022 FZRANO
KFKL 170356Z AUTO 24004KT 10SM CLR 03/02 A3028 RMK AO2 SLP265 T00280017
KFKL 170256Z AUTO 25004KT 10SM CLR 03/02 A3029 RMK AO2 SLP266 T00280017 51007
KFKL 170156Z AUTO 26004KT 10SM CLR 03/01 A3028 RMK AO2 SLP265 T00330011
KFKL 170056Z AUTO 00000KT 10SM CLR 05/01 A3028 RMK AO2 SLP262 T00500011
KFKL 162356Z AUTO 29003KT 10SM CLR 06/01 A3027 RMK AO2 SLP259 6//// T00610011 10111 20061 51010
KFKL 162256Z AUTO 30003KT 10SM CLR 07/02 A3026 RMK AO2 SLP256 T00720017
KFKL 162156Z AUTO VRB04KT 10SM SCT045 BKN060 09/00 A3025 RMK AO2 SLP249 T00940000
KFKL 162056Z AUTO 32007KT 10SM FEW046 SCT055 09/M01 A3023 RMK AO2 SLP246 60000 T00941006
KFKL 161956Z AUTO VRB05KT 10SM FEW031 SCT039 10/03 A3022 RMK AO2 SLP242 T01000033
KFKL 161856Z AUTO 10SM FEW028 10/04 RMK AO2 RAE16 SLPNO P0000 T01000039 $
KFKL 161756Z AUTO 31007KT 7SM RA SCT024 OVC030 07/05 A3023 RMK AO2 RAB1659E18B34 SLP247 P0003 60003 T00670050 10106 20056 53004
KFKL 161742Z AUTO 30010G17KT 8SM RA BKN024 OVC049 08/04 A3023 RMK AO2 RAB1659E18B34 P0001
KFKL 161656Z AUTO 30009KT 10SM SCT028 BKN033 BKN044 11/04 A3022 RMK AO2 RAB26E48 SLP239 P0000 T01060044
KFKL 161636Z AUTO VRB05KT 10SM -RA BKN028 OVC038 09/03 A3022 RMK AO2 RAB26 P0000
KFKL 161556Z AUTO 29006KT 10SM FEW026 SCT032 OVC041 09/03 A3022 RMK AO2 RAB25E42 SLP240 P0000 T00940033
KFKL 161518Z AUTO VRB05KT 10SM BKN030 OVC038 09/03 A3022 RMK AO2
KFKL 161456Z AUTO VRB03KT 10SM BKN028 OVC034 09/03 A3022 RMK AO2 SLP238 T00890028 51018
KFKL 161429Z AUTO 34006KT 10SM BKN028 09/03 A3021 RMK AO2
KFKL 161356Z AUTO VRB06KT 10SM CLR 08/03 A3020 RMK AO2 SLP232 T00830028
KFKL 161256Z AUTO VRB03KT 10SM CLR 07/03 A3019 RMK AO2 SLP228 T00670028
KFKL 161156Z AUTO 32004KT 10SM CLR 06/03 A3016 RMK AO2 SLP219 60000 70013 T00560028 10083 20050 51016
KFKL 161056Z AUTO 00000KT 10SM CLR 06/03 A3015 RMK AO2 SLP213 T00560028 TSNO
KFKL 161004Z AUTO VRB03KT 10SM FEW019 SCT024 BKN038 07/04 A3014 RMK AO2
KFKL 160956Z AUTO VRB03KT 10SM SCT019 BKN024 BKN036 07/04 A3013 RMK AO2 SLP207 T00720039
KFKL 160856Z AUTO VRB03KT 10SM BKN024 BKN031 OVC037 08/04 A3011 RMK AO2 SLP197 60000 T00780044 53013
KFKL 160756Z AUTO VRB03KT 10SM OVC035 08/05 A3010 RMK AO2 SLP190 T00780050